sensor_id;sensor_type;location;lat;lon;timestamp;temperature;humidity
31799;DHT22;18374;51.136;3.502;2022-07-29T00:02:32;17.60;99.90
31799;DHT22;18374;51.136;3.502;2022-07-29T00:05:05;17.60;99.90
31799;DHT22;18374;51.136;3.502;2022-07-29T00:07:45;17.40;99.90
31799;DHT22;18374;51.136;3.502;2022-07-29T00:10:18;17.60;99.90
31799;DHT22;18374;51.136;3.502;2022-07-29T00:12:48;17.60;99.90
31799;DHT22;18374;51.136;3.502;2022-07-29T00:15:36;17.60;99.90
31799;DHT22;18374;51.136;3.502;2022-07-29T00:18:20;17.60;99.90
31799;DHT22;18374;51.136;3.502;2022-07-29T00:20:50;17.60;99.90
31799;DHT22;18374;51.136;3.502;2022-07-29T00:23:20;17.60;99.90
31799;DHT22;18374;51.136;3.502;2022-07-29T00:25:54;17.60;99.90
31799;DHT22;18374;51.136;3.502;2022-07-29T00:28:38;17.60;99.90
31799;DHT22;18374;51.136;3.502;2022-07-29T00:31:06;17.50;99.90
31799;DHT22;18374;51.136;3.502;2022-07-29T00:33:36;17.50;99.90
31799;DHT22;18374;51.136;3.502;2022-07-29T00:36:06;17.50;99.90
31799;DHT22;18374;51.136;3.502;2022-07-29T00:38:48;17.50;99.90
31799;DHT22;18374;51.136;3.502;2022-07-29T00:41:20;17.40;99.90
31799;DHT22;18374;51.136;3.502;2022-07-29T00:43:59;17.40;99.90
31799;DHT22;18374;51.136;3.502;2022-07-29T00:46:29;17.30;99.90
31799;DHT22;18374;51.136;3.502;2022-07-29T00:48:57;17.40;99.90
31799;DHT22;18374;51.136;3.502;2022-07-29T00:51:26;17.30;99.90
31799;DHT22;18374;51.136;3.502;2022-07-29T00:53:54;17.30;99.90
31799;DHT22;18374;51.136;3.502;2022-07-29T00:56:24;17.30;99.90
31799;DHT22;18374;51.136;3.502;2022-07-29T00:58:57;17.20;99.90
31799;DHT22;18374;51.136;3.502;2022-07-29T01:01:29;17.20;99.90
31799;DHT22;18374;51.136;3.502;2022-07-29T01:03:57;17.20;99.90
31799;DHT22;18374;51.136;3.502;2022-07-29T01:06:27;17.20;99.90
31799;DHT22;18374;51.136;3.502;2022-07-29T01:08:55;17.10;99.90
31799;DHT22;18374;51.136;3.502;2022-07-29T01:11:23;17.10;99.90
31799;DHT22;18374;51.136;3.502;2022-07-29T01:13:54;17.00;99.90
31799;DHT22;18374;51.136;3.502;2022-07-29T01:16:34;17.00;99.90
31799;DHT22;18374;51.136;3.502;2022-07-29T01:28:13;16.80;99.90
31799;DHT22;18374;51.136;3.502;2022-07-29T01:30:51;16.80;99.90
31799;DHT22;18374;51.136;3.502;2022-07-29T01:33:22;16.80;99.90
31799;DHT22;18374;51.136;3.502;2022-07-29T01:36:14;16.70;99.90
31799;DHT22;18374;51.136;3.502;2022-07-29T01:39:23;16.70;99.90
31799;DHT22;18374;51.136;3.502;2022-07-29T01:42:08;16.60;99.90
31799;DHT22;18374;51.136;3.502;2022-07-29T01:47:39;16.40;99.90
31799;DHT22;18374;51.136;3.502;2022-07-29T01:50:12;16.40;99.90
31799;DHT22;18374;51.136;3.502;2022-07-29T01:52:52;16.40;99.90
31799;DHT22;18374;51.136;3.502;2022-07-29T01:55:32;16.40;99.90
31799;DHT22;18374;51.136;3.502;2022-07-29T01:58:07;16.30;99.90
31799;DHT22;18374;51.136;3.502;2022-07-29T02:00:39;16.30;99.90
31799;DHT22;18374;51.136;3.502;2022-07-29T02:03:20;16.20;99.90
31799;DHT22;18374;51.136;3.502;2022-07-29T02:05:52;16.50;99.90
31799;DHT22;18374;51.136;3.502;2022-07-29T02:08:31;16.20;99.90
31799;DHT22;18374;51.136;3.502;2022-07-29T02:11:03;16.10;99.90
31799;DHT22;18374;51.136;3.502;2022-07-29T02:13:36;16.10;99.90
31799;DHT22;18374;51.136;3.502;2022-07-29T02:16:06;16.20;99.90
31799;DHT22;18374;51.136;3.502;2022-07-29T02:18:39;16.20;99.90
31799;DHT22;18374;51.136;3.502;2022-07-29T02:21:12;16.10;99.90
31799;DHT22;18374;51.136;3.502;2022-07-29T02:23:42;16.20;99.90
31799;DHT22;18374;51.136;3.502;2022-07-29T02:26:21;16.20;99.90
31799;DHT22;18374;51.136;3.502;2022-07-29T02:28:57;16.20;99.90
31799;DHT22;18374;51.136;3.502;2022-07-29T02:31:31;16.20;99.90
31799;DHT22;18374;51.136;3.502;2022-07-29T02:34:03;16.30;99.90
31799;DHT22;18374;51.136;3.502;2022-07-29T02:36:33;16.20;99.90
31799;DHT22;18374;51.136;3.502;2022-07-29T02:39:02;16.30;99.90
31799;DHT22;18374;51.136;3.502;2022-07-29T02:41:46;16.20;99.90
31799;DHT22;18374;51.136;3.502;2022-07-29T02:44:19;16.20;99.90
31799;DHT22;18374;51.136;3.502;2022-07-29T02:49:54;16.20;99.90
31799;DHT22;18374;51.136;3.502;2022-07-29T02:52:34;16.20;99.90
31799;DHT22;18374;51.136;3.502;2022-07-29T02:58:19;16.20;99.90
31799;DHT22;18374;51.136;3.502;2022-07-29T03:01:02;16.10;99.90
31799;DHT22;18374;51.136;3.502;2022-07-29T03:03:37;16.10;99.90
31799;DHT22;18374;51.136;3.502;2022-07-29T03:06:07;16.00;99.90
31799;DHT22;18374;51.136;3.502;2022-07-29T03:08:57;15.90;99.90
31799;DHT22;18374;51.136;3.502;2022-07-29T03:11:26;15.80;99.90
31799;DHT22;18374;51.136;3.502;2022-07-29T03:14:14;15.70;99.90
31799;DHT22;18374;51.136;3.502;2022-07-29T03:16:43;15.60;99.90
31799;DHT22;18374;51.136;3.502;2022-07-29T03:19:14;15.50;99.90
31799;DHT22;18374;51.136;3.502;2022-07-29T03:21:44;15.40;99.90
31799;DHT22;18374;51.136;3.502;2022-07-29T03:24:33;15.20;99.90
31799;DHT22;18374;51.136;3.502;2022-07-29T03:27:03;15.10;99.90
31799;DHT22;18374;51.136;3.502;2022-07-29T03:29:32;15.10;99.90
31799;DHT22;18374;51.136;3.502;2022-07-29T03:32:03;15.10;99.90
31799;DHT22;18374;51.136;3.502;2022-07-29T03:34:36;14.90;99.90
31799;DHT22;18374;51.136;3.502;2022-07-29T03:37:05;14.80;99.90
31799;DHT22;18374;51.136;3.502;2022-07-29T03:39:38;14.80;99.90
31799;DHT22;18374;51.136;3.502;2022-07-29T03:42:11;14.80;99.90
31799;DHT22;18374;51.136;3.502;2022-07-29T03:44:45;14.80;99.90
31799;DHT22;18374;51.136;3.502;2022-07-29T03:47:17;14.80;99.90
31799;DHT22;18374;51.136;3.502;2022-07-29T03:49:52;14.80;99.90
31799;DHT22;18374;51.136;3.502;2022-07-29T03:52:22;14.80;99.90
31799;DHT22;18374;51.136;3.502;2022-07-29T03:54:49;14.80;99.90
31799;DHT22;18374;51.136;3.502;2022-07-29T03:57:19;14.80;99.90
31799;DHT22;18374;51.136;3.502;2022-07-29T03:59:50;14.90;99.90
31799;DHT22;18374;51.136;3.502;2022-07-29T04:02:19;14.90;99.90
31799;DHT22;18374;51.136;3.502;2022-07-29T04:05:12;14.90;99.90
31799;DHT22;18374;51.136;3.502;2022-07-29T04:07:46;14.80;99.90
31799;DHT22;18374;51.136;3.502;2022-07-29T04:10:17;14.80;99.90
31799;DHT22;18374;51.136;3.502;2022-07-29T04:12:59;14.60;99.90
31799;DHT22;18374;51.136;3.502;2022-07-29T04:15:27;14.60;99.90
31799;DHT22;18374;51.136;3.502;2022-07-29T04:17:59;14.60;99.90
31799;DHT22;18374;51.136;3.502;2022-07-29T04:20:27;14.60;99.90
31799;DHT22;18374;51.136;3.502;2022-07-29T04:22:55;14.50;99.90
31799;DHT22;18374;51.136;3.502;2022-07-29T04:25:23;14.50;99.90
31799;DHT22;18374;51.136;3.502;2022-07-29T04:27:50;14.40;99.90
31799;DHT22;18374;51.136;3.502;2022-07-29T04:30:28;14.40;99.90
31799;DHT22;18374;51.136;3.502;2022-07-29T04:32:56;14.40;99.90
31799;DHT22;18374;51.136;3.502;2022-07-29T04:35:24;14.40;99.90
31799;DHT22;18374;51.136;3.502;2022-07-29T04:37:52;14.30;99.90
31799;DHT22;18374;51.136;3.502;2022-07-29T04:40:20;14.40;99.90
31799;DHT22;18374;51.136;3.502;2022-07-29T04:42:48;14.40;99.90
31799;DHT22;18374;51.136;3.502;2022-07-29T04:45:16;14.40;99.90
31799;DHT22;18374;51.136;3.502;2022-07-29T04:47:49;14.40;99.90
31799;DHT22;18374;51.136;3.502;2022-07-29T04:50:17;14.40;99.90
31799;DHT22;18374;51.136;3.502;2022-07-29T04:52:45;14.40;99.90
31799;DHT22;18374;51.136;3.502;2022-07-29T04:55:12;14.40;99.90
31799;DHT22;18374;51.136;3.502;2022-07-29T04:57:40;14.50;99.90
31799;DHT22;18374;51.136;3.502;2022-07-29T05:00:08;14.50;99.90
31799;DHT22;18374;51.136;3.502;2022-07-29T05:02:36;14.50;99.90
31799;DHT22;18374;51.136;3.502;2022-07-29T05:05:04;14.40;99.90
31799;DHT22;18374;51.136;3.502;2022-07-29T05:07:32;14.40;99.90
31799;DHT22;18374;51.136;3.502;2022-07-29T05:10:00;14.40;99.90
31799;DHT22;18374;51.136;3.502;2022-07-29T05:12:28;14.50;99.90
31799;DHT22;18374;51.136;3.502;2022-07-29T05:14:55;14.50;99.90
31799;DHT22;18374;51.136;3.502;2022-07-29T05:17:23;14.50;99.90
31799;DHT22;18374;51.136;3.502;2022-07-29T05:19:51;14.50;99.90
31799;DHT22;18374;51.136;3.502;2022-07-29T05:22:19;14.50;99.90
31799;DHT22;18374;51.136;3.502;2022-07-29T05:24:47;14.60;99.90
31799;DHT22;18374;51.136;3.502;2022-07-29T05:27:15;14.60;99.90
31799;DHT22;18374;51.136;3.502;2022-07-29T05:29:43;14.70;99.90
31799;DHT22;18374;51.136;3.502;2022-07-29T05:32:13;14.80;99.90
31799;DHT22;18374;51.136;3.502;2022-07-29T05:34:41;14.80;99.90
31799;DHT22;18374;51.136;3.502;2022-07-29T05:37:19;14.90;99.90
31799;DHT22;18374;51.136;3.502;2022-07-29T05:39:47;15.00;99.90
31799;DHT22;18374;51.136;3.502;2022-07-29T05:42:24;15.00;99.90
31799;DHT22;18374;51.136;3.502;2022-07-29T05:44:52;15.10;99.90
31799;DHT22;18374;51.136;3.502;2022-07-29T05:47:20;15.20;99.90
31799;DHT22;18374;51.136;3.502;2022-07-29T05:49:49;15.30;99.90
31799;DHT22;18374;51.136;3.502;2022-07-29T05:52:18;15.40;99.90
31799;DHT22;18374;51.136;3.502;2022-07-29T05:54:45;15.50;99.90
31799;DHT22;18374;51.136;3.502;2022-07-29T05:57:17;15.50;99.90
31799;DHT22;18374;51.136;3.502;2022-07-29T05:59:49;15.60;99.90
31799;DHT22;18374;51.136;3.502;2022-07-29T06:02:18;15.70;99.90
31799;DHT22;18374;51.136;3.502;2022-07-29T06:04:46;15.80;99.90
31799;DHT22;18374;51.136;3.502;2022-07-29T06:07:13;15.90;99.90
31799;DHT22;18374;51.136;3.502;2022-07-29T06:09:42;16.00;99.90
31799;DHT22;18374;51.136;3.502;2022-07-29T06:12:09;16.00;99.90
31799;DHT22;18374;51.136;3.502;2022-07-29T06:14:37;16.10;99.90
31799;DHT22;18374;51.136;3.502;2022-07-29T06:17:05;16.20;99.90
31799;DHT22;18374;51.136;3.502;2022-07-29T06:19:36;16.30;99.90
31799;DHT22;18374;51.136;3.502;2022-07-29T06:22:07;16.30;99.90
31799;DHT22;18374;51.136;3.502;2022-07-29T06:24:36;16.30;99.90
31799;DHT22;18374;51.136;3.502;2022-07-29T06:27:07;16.50;99.90
31799;DHT22;18374;51.136;3.502;2022-07-29T06:29:35;16.50;99.90
31799;DHT22;18374;51.136;3.502;2022-07-29T06:32:03;16.70;99.90
31799;DHT22;18374;51.136;3.502;2022-07-29T06:34:31;16.70;99.90
31799;DHT22;18374;51.136;3.502;2022-07-29T06:36:59;16.80;99.90
31799;DHT22;18374;51.136;3.502;2022-07-29T06:39:26;16.90;99.90
31799;DHT22;18374;51.136;3.502;2022-07-29T06:41:55;17.00;99.90
31799;DHT22;18374;51.136;3.502;2022-07-29T06:44:24;17.00;99.90
31799;DHT22;18374;51.136;3.502;2022-07-29T06:46:52;17.10;99.90
31799;DHT22;18374;51.136;3.502;2022-07-29T06:49:20;17.20;99.90
31799;DHT22;18374;51.136;3.502;2022-07-29T06:51:48;17.30;99.90
31799;DHT22;18374;51.136;3.502;2022-07-29T06:54:15;17.40;99.90
31799;DHT22;18374;51.136;3.502;2022-07-29T06:56:44;17.60;99.90
31799;DHT22;18374;51.136;3.502;2022-07-29T06:59:12;17.60;99.90
31799;DHT22;18374;51.136;3.502;2022-07-29T07:01:42;17.70;99.90
31799;DHT22;18374;51.136;3.502;2022-07-29T07:04:11;17.70;99.90
31799;DHT22;18374;51.136;3.502;2022-07-29T07:06:39;17.80;99.90
31799;DHT22;18374;51.136;3.502;2022-07-29T07:09:07;17.80;99.90
31799;DHT22;18374;51.136;3.502;2022-07-29T07:11:35;17.90;99.90
31799;DHT22;18374;51.136;3.502;2022-07-29T07:14:02;18.00;99.90
31799;DHT22;18374;51.136;3.502;2022-07-29T07:16:31;18.10;99.90
31799;DHT22;18374;51.136;3.502;2022-07-29T07:19:00;18.20;99.90
31799;DHT22;18374;51.136;3.502;2022-07-29T07:21:28;18.50;99.90
31799;DHT22;18374;51.136;3.502;2022-07-29T07:23:58;18.40;99.90
31799;DHT22;18374;51.136;3.502;2022-07-29T07:26:26;18.60;99.90
31799;DHT22;18374;51.136;3.502;2022-07-29T07:28:54;18.60;99.90
31799;DHT22;18374;51.136;3.502;2022-07-29T07:31:25;18.70;99.90
31799;DHT22;18374;51.136;3.502;2022-07-29T07:33:53;18.80;99.90
31799;DHT22;18374;51.136;3.502;2022-07-29T07:36:21;19.00;99.90
31799;DHT22;18374;51.136;3.502;2022-07-29T07:38:52;19.00;99.90
31799;DHT22;18374;51.136;3.502;2022-07-29T07:41:20;19.00;99.90
31799;DHT22;18374;51.136;3.502;2022-07-29T07:43:48;19.10;99.90
31799;DHT22;18374;51.136;3.502;2022-07-29T07:46:15;19.20;99.90
31799;DHT22;18374;51.136;3.502;2022-07-29T07:48:43;19.30;99.90
31799;DHT22;18374;51.136;3.502;2022-07-29T07:51:11;19.30;99.90
31799;DHT22;18374;51.136;3.502;2022-07-29T07:53:39;19.40;99.90
31799;DHT22;18374;51.136;3.502;2022-07-29T07:56:07;19.50;99.90
31799;DHT22;18374;51.136;3.502;2022-07-29T07:58:39;19.70;99.90
31799;DHT22;18374;51.136;3.502;2022-07-29T08:01:07;19.80;99.90
31799;DHT22;18374;51.136;3.502;2022-07-29T08:03:38;19.90;99.90
31799;DHT22;18374;51.136;3.502;2022-07-29T08:06:06;20.10;99.90
31799;DHT22;18374;51.136;3.502;2022-07-29T08:08:34;20.20;99.90
31799;DHT22;18374;51.136;3.502;2022-07-29T08:11:03;20.40;99.90
31799;DHT22;18374;51.136;3.502;2022-07-29T08:13:37;20.50;99.90
31799;DHT22;18374;51.136;3.502;2022-07-29T08:16:08;20.50;99.90
31799;DHT22;18374;51.136;3.502;2022-07-29T08:18:41;20.60;99.90
31799;DHT22;18374;51.136;3.502;2022-07-29T08:21:10;20.70;99.90
31799;DHT22;18374;51.136;3.502;2022-07-29T08:23:43;20.50;99.90
31799;DHT22;18374;51.136;3.502;2022-07-29T08:26:26;20.60;99.90
31799;DHT22;18374;51.136;3.502;2022-07-29T08:28:54;20.90;99.90
31799;DHT22;18374;51.136;3.502;2022-07-29T08:31:21;21.10;99.90
31799;DHT22;18374;51.136;3.502;2022-07-29T08:33:49;21.10;99.90
31799;DHT22;18374;51.136;3.502;2022-07-29T08:36:17;21.00;99.90
31799;DHT22;18374;51.136;3.502;2022-07-29T08:38:45;21.10;99.90
31799;DHT22;18374;51.136;3.502;2022-07-29T08:41:12;21.10;99.90
31799;DHT22;18374;51.136;3.502;2022-07-29T08:43:40;21.10;99.90
31799;DHT22;18374;51.136;3.502;2022-07-29T08:46:09;21.30;99.90
31799;DHT22;18374;51.136;3.502;2022-07-29T08:48:36;21.40;99.90
31799;DHT22;18374;51.136;3.502;2022-07-29T08:51:07;21.50;99.90
31799;DHT22;18374;51.136;3.502;2022-07-29T08:53:37;21.70;99.90
31799;DHT22;18374;51.136;3.502;2022-07-29T08:56:06;21.90;99.90
31799;DHT22;18374;51.136;3.502;2022-07-29T08:58:34;22.00;99.90
31799;DHT22;18374;51.136;3.502;2022-07-29T09:01:04;21.90;99.90
31799;DHT22;18374;51.136;3.502;2022-07-29T09:03:36;22.10;99.90
31799;DHT22;18374;51.136;3.502;2022-07-29T09:06:04;22.30;99.90
31799;DHT22;18374;51.136;3.502;2022-07-29T09:08:32;22.40;99.90
31799;DHT22;18374;51.136;3.502;2022-07-29T09:11:01;22.50;99.90
31799;DHT22;18374;51.136;3.502;2022-07-29T09:13:32;22.50;99.90
31799;DHT22;18374;51.136;3.502;2022-07-29T09:16:02;22.50;99.90
31799;DHT22;18374;51.136;3.502;2022-07-29T09:18:41;22.50;99.90
31799;DHT22;18374;51.136;3.502;2022-07-29T09:21:12;22.50;99.90
31799;DHT22;18374;51.136;3.502;2022-07-29T09:24:10;22.50;99.90
31799;DHT22;18374;51.136;3.502;2022-07-29T09:26:41;22.70;99.90
31799;DHT22;18374;51.136;3.502;2022-07-29T09:29:13;22.80;99.90
31799;DHT22;18374;51.136;3.502;2022-07-29T09:31:47;23.00;99.90
31799;DHT22;18374;51.136;3.502;2022-07-29T09:34:29;23.20;99.90
31799;DHT22;18374;51.136;3.502;2022-07-29T09:36:58;23.20;98.50
31799;DHT22;18374;51.136;3.502;2022-07-29T09:39:38;23.20;98.60
31799;DHT22;18374;51.136;3.502;2022-07-29T09:42:28;23.40;98.70
31799;DHT22;18374;51.136;3.502;2022-07-29T09:44:56;23.60;98.80
31799;DHT22;18374;51.136;3.502;2022-07-29T09:47:47;23.80;98.00
31799;DHT22;18374;51.136;3.502;2022-07-29T09:50:16;23.90;96.50
31799;DHT22;18374;51.136;3.502;2022-07-29T09:52:51;23.80;96.30
31799;DHT22;18374;51.136;3.502;2022-07-29T09:55:25;23.50;96.00
31799;DHT22;18374;51.136;3.502;2022-07-29T09:57:53;23.60;96.90
31799;DHT22;18374;51.136;3.502;2022-07-29T10:00:42;23.60;96.80
31799;DHT22;18374;51.136;3.502;2022-07-29T10:03:11;23.70;96.10
31799;DHT22;18374;51.136;3.502;2022-07-29T10:05:40;23.70;95.40
31799;DHT22;18374;51.136;3.502;2022-07-29T10:08:10;23.70;94.90
31799;DHT22;18374;51.136;3.502;2022-07-29T10:10:42;23.80;95.00
31799;DHT22;18374;51.136;3.502;2022-07-29T10:13:13;23.90;95.80
31799;DHT22;18374;51.136;3.502;2022-07-29T10:15:44;24.00;96.00
31799;DHT22;18374;51.136;3.502;2022-07-29T10:18:14;23.90;95.10
31799;DHT22;18374;51.136;3.502;2022-07-29T10:20:44;24.20;95.20
31799;DHT22;18374;51.136;3.502;2022-07-29T10:23:12;24.20;95.00
31799;DHT22;18374;51.136;3.502;2022-07-29T10:25:41;24.20;94.90
31799;DHT22;18374;51.136;3.502;2022-07-29T10:28:12;24.40;95.20
31799;DHT22;18374;51.136;3.502;2022-07-29T10:30:44;24.20;94.70
31799;DHT22;18374;51.136;3.502;2022-07-29T10:37:17;24.10;93.60
31799;DHT22;18374;51.136;3.502;2022-07-29T10:42:55;23.80;95.20
31799;DHT22;18374;51.136;3.502;2022-07-29T10:45:28;23.50;94.90
31799;DHT22;18374;51.136;3.502;2022-07-29T10:48:04;23.50;94.40
31799;DHT22;18374;51.136;3.502;2022-07-29T10:51:03;23.30;94.50
31799;DHT22;18374;51.136;3.502;2022-07-29T10:53:48;23.50;95.40
31799;DHT22;18374;51.136;3.502;2022-07-29T10:56:25;23.70;95.10
31799;DHT22;18374;51.136;3.502;2022-07-29T11:01:50;24.10;93.50
31799;DHT22;18374;51.136;3.502;2022-07-29T11:07:13;24.50;91.70
31799;DHT22;18374;51.136;3.502;2022-07-29T11:09:43;24.80;92.00
31799;DHT22;18374;51.136;3.502;2022-07-29T11:15:07;25.10;91.10
31799;DHT22;18374;51.136;3.502;2022-07-29T11:20:47;24.60;91.80
31799;DHT22;18374;51.136;3.502;2022-07-29T11:23:23;24.80;92.90
31799;DHT22;18374;51.136;3.502;2022-07-29T11:26:16;24.70;91.10
31799;DHT22;18374;51.136;3.502;2022-07-29T11:32:08;24.80;90.10
31799;DHT22;18374;51.136;3.502;2022-07-29T11:34:45;24.70;90.80
31799;DHT22;18374;51.136;3.502;2022-07-29T11:37:15;25.10;91.50
31799;DHT22;18374;51.136;3.502;2022-07-29T11:39:47;25.20;92.00
31799;DHT22;18374;51.136;3.502;2022-07-29T11:45:12;24.70;92.80
31799;DHT22;18374;51.136;3.502;2022-07-29T11:48:15;24.70;92.30
31799;DHT22;18374;51.136;3.502;2022-07-29T11:51:10;24.50;92.30
31799;DHT22;18374;51.136;3.502;2022-07-29T11:53:39;24.40;92.90
31799;DHT22;18374;51.136;3.502;2022-07-29T11:56:08;24.60;93.30
31799;DHT22;18374;51.136;3.502;2022-07-29T11:58:44;24.80;92.70
31799;DHT22;18374;51.136;3.502;2022-07-29T12:01:18;24.80;92.10
31799;DHT22;18374;51.136;3.502;2022-07-29T12:03:46;24.80;92.10
31799;DHT22;18374;51.136;3.502;2022-07-29T12:06:14;24.80;91.60
31799;DHT22;18374;51.136;3.502;2022-07-29T12:08:44;24.70;92.10
31799;DHT22;18374;51.136;3.502;2022-07-29T12:11:17;24.70;91.60
31799;DHT22;18374;51.136;3.502;2022-07-29T12:13:48;24.80;90.90
31799;DHT22;18374;51.136;3.502;2022-07-29T12:16:20;25.00;92.30
31799;DHT22;18374;51.136;3.502;2022-07-29T12:18:56;25.10;91.30
31799;DHT22;18374;51.136;3.502;2022-07-29T12:21:41;25.10;90.80
31799;DHT22;18374;51.136;3.502;2022-07-29T12:24:24;25.30;91.70
31799;DHT22;18374;51.136;3.502;2022-07-29T12:26:57;25.60;90.10
31799;DHT22;18374;51.136;3.502;2022-07-29T12:29:26;25.70;88.90
31799;DHT22;18374;51.136;3.502;2022-07-29T12:32:00;26.00;88.90
31799;DHT22;18374;51.136;3.502;2022-07-29T12:34:28;26.00;87.80
31799;DHT22;18374;51.136;3.502;2022-07-29T12:36:58;25.70;89.70
31799;DHT22;18374;51.136;3.502;2022-07-29T12:39:26;25.50;87.30
31799;DHT22;18374;51.136;3.502;2022-07-29T12:41:55;25.60;86.60
31799;DHT22;18374;51.136;3.502;2022-07-29T12:45:04;25.90;87.00
31799;DHT22;18374;51.136;3.502;2022-07-29T12:47:51;25.70;87.50
31799;DHT22;18374;51.136;3.502;2022-07-29T12:50:19;25.40;90.10
31799;DHT22;18374;51.136;3.502;2022-07-29T12:52:52;25.30;90.10
31799;DHT22;18374;51.136;3.502;2022-07-29T12:55:46;25.10;89.50
31799;DHT22;18374;51.136;3.502;2022-07-29T12:58:29;25.10;90.40
31799;DHT22;18374;51.136;3.502;2022-07-29T13:03:48;25.30;89.80
31799;DHT22;18374;51.136;3.502;2022-07-29T13:09:20;25.20;90.20
31799;DHT22;18374;51.136;3.502;2022-07-29T13:11:52;25.20;89.70
31799;DHT22;18374;51.136;3.502;2022-07-29T13:14:34;25.30;88.30
31799;DHT22;18374;51.136;3.502;2022-07-29T13:17:10;25.30;90.00
31799;DHT22;18374;51.136;3.502;2022-07-29T13:19:48;25.40;89.80
31799;DHT22;18374;51.136;3.502;2022-07-29T13:22:20;25.40;88.20
31799;DHT22;18374;51.136;3.502;2022-07-29T13:27:23;25.30;88.60
31799;DHT22;18374;51.136;3.502;2022-07-29T13:29:53;25.20;90.10
31799;DHT22;18374;51.136;3.502;2022-07-29T13:32:25;25.40;88.50
31799;DHT22;18374;51.136;3.502;2022-07-29T13:34:56;25.60;87.40
31799;DHT22;18374;51.136;3.502;2022-07-29T13:37:25;25.30;89.40
31799;DHT22;18374;51.136;3.502;2022-07-29T13:39:53;25.30;90.00
31799;DHT22;18374;51.136;3.502;2022-07-29T13:42:22;25.20;90.50
31799;DHT22;18374;51.136;3.502;2022-07-29T13:44:50;25.20;90.90
31799;DHT22;18374;51.136;3.502;2022-07-29T13:47:20;25.10;90.90
31799;DHT22;18374;51.136;3.502;2022-07-29T13:50:00;25.20;89.60
31799;DHT22;18374;51.136;3.502;2022-07-29T13:52:29;25.00;90.60
31799;DHT22;18374;51.136;3.502;2022-07-29T13:54:56;25.10;90.30
31799;DHT22;18374;51.136;3.502;2022-07-29T13:57:24;25.20;90.80
31799;DHT22;18374;51.136;3.502;2022-07-29T13:59:52;25.10;90.40
31799;DHT22;18374;51.136;3.502;2022-07-29T14:02:21;25.10;89.10
31799;DHT22;18374;51.136;3.502;2022-07-29T14:04:53;24.80;90.20
31799;DHT22;18374;51.136;3.502;2022-07-29T14:07:22;24.80;90.40
31799;DHT22;18374;51.136;3.502;2022-07-29T14:09:50;24.90;90.90
31799;DHT22;18374;51.136;3.502;2022-07-29T14:12:18;25.10;91.70
31799;DHT22;18374;51.136;3.502;2022-07-29T14:14:46;25.30;91.90
31799;DHT22;18374;51.136;3.502;2022-07-29T14:17:14;25.20;90.60
31799;DHT22;18374;51.136;3.502;2022-07-29T14:19:42;25.30;90.10
31799;DHT22;18374;51.136;3.502;2022-07-29T14:22:10;25.20;90.80
31799;DHT22;18374;51.136;3.502;2022-07-29T14:24:39;25.10;90.20
31799;DHT22;18374;51.136;3.502;2022-07-29T14:27:07;24.90;90.90
31799;DHT22;18374;51.136;3.502;2022-07-29T14:29:35;24.90;91.10
31799;DHT22;18374;51.136;3.502;2022-07-29T14:32:06;25.00;91.30
31799;DHT22;18374;51.136;3.502;2022-07-29T14:34:36;24.90;91.30
31799;DHT22;18374;51.136;3.502;2022-07-29T14:37:04;24.80;91.40
31799;DHT22;18374;51.136;3.502;2022-07-29T14:39:34;24.70;91.90
31799;DHT22;18374;51.136;3.502;2022-07-29T14:42:10;24.70;91.80
31799;DHT22;18374;51.136;3.502;2022-07-29T14:44:40;24.60;91.70
31799;DHT22;18374;51.136;3.502;2022-07-29T14:47:09;24.40;92.60
31799;DHT22;18374;51.136;3.502;2022-07-29T14:49:36;24.50;92.70
31799;DHT22;18374;51.136;3.502;2022-07-29T14:52:04;24.10;92.70
31799;DHT22;18374;51.136;3.502;2022-07-29T14:54:32;24.10;93.00
31799;DHT22;18374;51.136;3.502;2022-07-29T14:56:59;24.00;92.60
31799;DHT22;18374;51.136;3.502;2022-07-29T14:59:28;23.80;92.90
31799;DHT22;18374;51.136;3.502;2022-07-29T15:01:55;23.90;93.60
31799;DHT22;18374;51.136;3.502;2022-07-29T15:04:23;23.90;92.90
31799;DHT22;18374;51.136;3.502;2022-07-29T15:06:51;23.90;93.20
31799;DHT22;18374;51.136;3.502;2022-07-29T15:09:19;23.80;93.20
31799;DHT22;18374;51.136;3.502;2022-07-29T15:11:46;24.00;93.80
31799;DHT22;18374;51.136;3.502;2022-07-29T15:14:14;24.00;92.70
31799;DHT22;18374;51.136;3.502;2022-07-29T15:16:42;23.80;92.20
31799;DHT22;18374;51.136;3.502;2022-07-29T15:19:14;23.70;93.40
31799;DHT22;18374;51.136;3.502;2022-07-29T15:21:42;23.70;93.10
31799;DHT22;18374;51.136;3.502;2022-07-29T15:24:16;23.80;92.80
31799;DHT22;18374;51.136;3.502;2022-07-29T15:26:44;23.90;93.00
31799;DHT22;18374;51.136;3.502;2022-07-29T15:29:13;23.90;92.90
31799;DHT22;18374;51.136;3.502;2022-07-29T15:31:41;23.80;93.20
31799;DHT22;18374;51.136;3.502;2022-07-29T15:34:09;23.80;93.70
31799;DHT22;18374;51.136;3.502;2022-07-29T15:36:37;24.00;94.10
31799;DHT22;18374;51.136;3.502;2022-07-29T15:39:21;24.00;93.70
31799;DHT22;18374;51.136;3.502;2022-07-29T15:41:49;23.80;92.70
31799;DHT22;18374;51.136;3.502;2022-07-29T15:44:19;23.70;92.70
31799;DHT22;18374;51.136;3.502;2022-07-29T15:46:48;23.70;92.50
31799;DHT22;18374;51.136;3.502;2022-07-29T15:49:36;23.70;93.20
31799;DHT22;18374;51.136;3.502;2022-07-29T15:52:17;23.70;92.50
31799;DHT22;18374;51.136;3.502;2022-07-29T15:54:56;23.60;93.30
31799;DHT22;18374;51.136;3.502;2022-07-29T15:57:24;23.40;93.50
31799;DHT22;18374;51.136;3.502;2022-07-29T15:59:52;23.20;93.50
31799;DHT22;18374;51.136;3.502;2022-07-29T16:02:19;23.20;94.00
31799;DHT22;18374;51.136;3.502;2022-07-29T16:04:47;23.40;94.30
31799;DHT22;18374;51.136;3.502;2022-07-29T16:07:15;23.40;93.90
31799;DHT22;18374;51.136;3.502;2022-07-29T16:09:43;23.50;94.20
31799;DHT22;18374;51.136;3.502;2022-07-29T16:12:18;23.50;93.90
31799;DHT22;18374;51.136;3.502;2022-07-29T16:14:47;23.40;93.30
31799;DHT22;18374;51.136;3.502;2022-07-29T16:17:18;23.10;93.40
31799;DHT22;18374;51.136;3.502;2022-07-29T16:19:45;23.10;94.00
31799;DHT22;18374;51.136;3.502;2022-07-29T16:22:14;23.10;94.50
31799;DHT22;18374;51.136;3.502;2022-07-29T16:24:42;23.20;94.10
31799;DHT22;18374;51.136;3.502;2022-07-29T16:27:10;23.20;94.30
31799;DHT22;18374;51.136;3.502;2022-07-29T16:29:38;23.10;94.50
31799;DHT22;18374;51.136;3.502;2022-07-29T16:32:06;22.90;94.30
31799;DHT22;18374;51.136;3.502;2022-07-29T16:34:33;22.80;94.50
31799;DHT22;18374;51.136;3.502;2022-07-29T16:37:01;22.70;94.40
31799;DHT22;18374;51.136;3.502;2022-07-29T16:39:30;22.70;95.00
31799;DHT22;18374;51.136;3.502;2022-07-29T16:41:58;22.70;94.40
31799;DHT22;18374;51.136;3.502;2022-07-29T16:44:28;22.70;95.50
31799;DHT22;18374;51.136;3.502;2022-07-29T16:46:56;22.80;95.10
31799;DHT22;18374;51.136;3.502;2022-07-29T16:49:26;22.80;94.70
31799;DHT22;18374;51.136;3.502;2022-07-29T16:51:54;22.80;94.90